Anza, California
Current Conditions -  °F | °C
As of 1:53 AM on Saturday 29 Nov 2014 (Local Time) from KPSP Reporting Station
Clear Clear  
Wind Chill: 56°   Ceiling: Unl
Heat Index: 56°   Visibility: 10mi
Dew Point: 31°   Wind: 3mph
Humidity: 39%   Direction: 330°NNW
Pressure: 29.87"   Gusts: NA
Location:  33.55°N, 116.67°W
Report Text: KPSP 290953Z 33003KT 10SM CLR 13/M01 A2987 RMK AO2 SLP113 T01331006
Loading
Personal Weather Stations






























Interactive Weather Map New forecast layout! Learn more

10-Day Weather Forecast

Advertisements
Track Severe Weather on mobile